Etusivu
METAR-TAF:

METAR-TAF

Lentoasemat :

Colmar, Ranska

Leveyspiiri: 48-06-37N, Pituuspiiri: 7-21-33E, korkeus merenpinnasta: 191 m

Tämänhetkinen sää

Tämä raportti tehtiin 31 minuuttia sitten, kello 21.30 UTC
Tuuli 4 kn lännestä
Lämpötila 21°C
Kosteus 78%
Ilmanpaine 1016 hPa
Näkyvyys 10 km tai enemmän
ei pilviä alle 1500 m:ssä eikä cumulonimbus-pilviä

METAR: LFGA 222130Z AUTO 27004KT CAVOK 21/17 Q1016

Aika: 00:01 (22:01 UTC)


TAF: puuttuu

Säähavainnot ja -ennusteet yli 4000 lentoasemalta (METAR- ja TAF-raportit).

Käytössä olevat sääasemat on merkitty karttaan keltaisilla ja punaisilla pisteillä.

Aseta hiiri pisteen päälle nähdäksesi sääaseman nimen.

Klikkaa sitten nähdäksesi säähavainnot ja -ennusteet.

Kartan vaihtaminen: klikkaa mustalla rastilla varustettuja vihreitä pisteitä, niin voit zoomata sisään; viivalla varustettua vihreää pistettä, niin voit zoomata ulos tai vihreitä nuolia, niin pääset viereisille kartoille.


METAR-TAF: